Time;durP1;ratioP1;P1;durP2;ratioP2;P2;SDS_P1;SDS_P2;PMS_P1;PMS_P2;Temp;Humidity;BMP_temperature;BMP_pressure;BME280_temperature;BME280_humidity;BME280_pressure;Samples;Min_cycle;Max_cycle;Signal;HPM_P1;HPM_P2
2023/03/21 00:02:04;;;;;;;0.57;0.57;;;9.10;99.90;;;;;;5073710;28;20045;-82
2023/03/21 00:04:30;;;;;;;0.20;0.17;;;9.10;99.90;;;;;;5073010;28;20143;-81
2023/03/21 00:06:56;;;;;;;0.45;0.40;;;9.10;99.90;;;;;;5073335;28;20048;-82
2023/03/21 00:09:22;;;;;;;0.20;0.20;;;9.10;99.90;;;;;;5073366;28;20617;-81
2023/03/21 00:11:48;;;;;;;0.38;0.38;;;9.10;99.90;;;;;;5073459;28;20072;-81
2023/03/21 00:14:17;;;;;;;0.80;0.80;;;9.00;99.90;;;;;;5073224;28;20075;-81
2023/03/21 00:16:44;;;;;;;0.82;0.25;;;9.10;99.90;;;;;;5073622;28;20399;-81
2023/03/21 00:19:11;;;;;;;1.30;0.90;;;9.10;99.90;;;;;;5055171;28;20560;-81
2023/03/21 00:21:37;;;;;;;0.57;0.52;;;9.10;99.90;;;;;;5060503;28;20036;-82
2023/03/21 00:24:04;;;;;;;0.57;0.38;;;9.10;99.90;;;;;;5073704;28;20048;-82
2023/03/21 00:26:30;;;;;;;0.77;0.38;;;9.10;99.90;;;;;;5072424;28;20098;-82
2023/03/21 00:28:56;;;;;;;0.75;0.47;;;9.10;99.90;;;;;;5058920;28;20049;-82
2023/03/21 00:31:22;;;;;;;0.93;0.65;;;9.10;99.90;;;;;;5055757;28;20094;-81
2023/03/21 00:33:48;;;;;;;0.57;0.40;;;9.10;99.90;;;;;;5073269;28;20473;-81
2023/03/21 00:36:14;;;;;;;0.25;0.20;;;9.10;99.90;;;;;;5072940;28;20090;-82
2023/03/21 00:38:40;;;;;;;1.70;1.00;;;9.10;99.90;;;;;;5073381;28;20052;-82
2023/03/21 00:41:08;;;;;;;0.30;0.30;;;9.20;99.90;;;;;;5072847;28;20045;-82
2023/03/21 00:43:34;;;;;;;3.33;1.63;;;9.20;99.90;;;;;;5054382;28;20049;-82
2023/03/21 00:46:00;;;;;;;2.80;0.50;;;9.20;99.90;;;;;;5051726;28;20072;-82
2023/03/21 00:48:26;;;;;;;3.85;2.03;;;9.20;99.90;;;;;;5060859;28;20482;-81
2023/03/21 00:50:55;;;;;;;1.30;1.20;;;9.20;99.90;;;;;;5072243;28;20094;-81
2023/03/21 00:53:22;;;;;;;1.33;1.05;;;9.20;99.90;;;;;;5072036;28;20052;-82
2023/03/21 00:55:48;;;;;;;2.45;2.00;;;9.20;99.90;;;;;;5072736;28;20141;-82
2023/03/21 00:58:14;;;;;;;4.20;1.77;;;9.10;99.90;;;;;;5071562;28;20045;-81
2023/03/21 01:00:40;;;;;;;1.63;1.48;;;9.20;99.90;;;;;;5072395;28;20044;-81
2023/03/21 01:03:08;;;;;;;1.17;1.10;;;10.20;99.90;;;;;;5058306;28;20041;-81
2023/03/21 01:08:22;;;;;;;3.17;1.33;;;10.00;99.90;;;;;;5060828;28;20449;-81
2023/03/21 01:10:50;;;;;;;1.55;1.02;;;9.10;99.90;;;;;;5075916;28;20045;-82
2023/03/21 01:13:17;;;;;;;1.33;1.23;;;9.20;99.90;;;;;;5061143;28;20057;-82
2023/03/21 01:15:46;;;;;;;3.58;1.52;;;9.20;99.90;;;;;;5055187;28;20405;-81
2023/03/21 01:18:12;;;;;;;2.08;1.88;;;9.20;99.90;;;;;;5061359;28;20524;-81
2023/03/21 01:20:40;;;;;;;1.80;1.33;;;9.20;99.90;;;;;;5076118;28;20070;-81
2023/03/21 01:23:06;;;;;;;8.85;1.90;;;9.20;99.90;;;;;;5074895;28;20090;-81
2023/03/21 01:25:32;;;;;;;1.23;1.13;;;9.20;99.90;;;;;;5075088;28;20056;-81
2023/03/21 01:27:58;;;;;;;3.60;1.23;;;9.20;99.90;;;;;;5055736;28;20211;-81
2023/03/21 01:30:24;;;;;;;1.30;1.20;;;9.20;99.90;;;;;;5056491;28;20336;-81
2023/03/21 01:32:49;;;;;;;2.25;1.52;;;9.20;99.90;;;;;;5067798;28;20090;-81
2023/03/21 01:35:15;;;;;;;1.88;1.55;;;9.20;99.90;;;;;;5076040;28;20049;-81
2023/03/21 01:37:42;;;;;;;4.07;2.72;;;9.20;99.90;;;;;;5075500;28;20047;-81
2023/03/21 01:40:13;;;;;;;2.22;2.03;;;9.20;99.90;;;;;;5056160;28;20044;-82
2023/03/21 01:42:39;;;;;;;3.65;1.55;;;9.20;99.90;;;;;;5064903;28;20049;-81
2023/03/21 01:45:26;;;;;;;2.08;1.58;;;9.20;99.90;;;;;;5074932;28;20083;-81
2023/03/21 01:47:52;;;;;;;1.45;1.15;;;9.20;99.90;;;;;;5076428;28;20120;-82
2023/03/21 01:50:21;;;;;;;1.05;0.88;;;9.20;99.90;;;;;;5075013;28;20084;-81
2023/03/21 01:52:48;;;;;;;1.85;1.67;;;9.10;99.90;;;;;;5063708;28;20075;-81
2023/03/21 01:55:16;;;;;;;0.65;0.60;;;9.20;99.90;;;;;;5054545;28;20453;-82
2023/03/21 01:57:52;;;;;;;1.45;1.35;;;9.20;99.90;;;;;;5053928;28;20040;-81
2023/03/21 02:00:23;;;;;;;1.60;0.98;;;9.20;99.90;;;;;;5074073;28;20048;-81
2023/03/21 02:02:58;;;;;;;2.72;1.23;;;9.20;99.90;;;;;;5075506;28;20059;-81
2023/03/21 02:05:35;;;;;;;2.25;2.05;;;9.20;99.90;;;;;;5074635;28;20052;-81
2023/03/21 02:08:01;;;;;;;4.40;3.08;;;9.20;99.90;;;;;;5074599;28;20100;-81
2023/03/21 02:10:28;;;;;;;3.78;1.25;;;9.20;99.90;;;;;;5045779;28;20533;-81
2023/03/21 02:12:57;;;;;;;3.03;2.38;;;9.20;99.90;;;;;;5055421;28;20045;-82
2023/03/21 02:15:25;;;;;;;4.97;3.13;;;9.20;99.90;;;;;;5053595;28;20041;-81
2023/03/21 02:18:01;;;;;;;1.45;1.35;;;9.70;99.90;;;;;;5052933;28;20049;-82
2023/03/21 02:21:05;;;;;;;0.93;0.82;;;9.20;99.90;;;;;;5064526;28;20052;-82
2023/03/21 02:23:48;;;;;;;1.35;1.17;;;9.20;99.90;;;;;;5033514;28;20200;-82
2023/03/21 02:26:41;;;;;;;1.67;1.58;;;9.20;99.90;;;;;;5040982;28;20059;-82
2023/03/21 02:29:10;;;;;;;1.23;1.13;;;9.20;99.90;;;;;;5052221;28;20545;-82
2023/03/21 02:31:59;;;;;;;2.90;1.88;;;9.20;99.90;;;;;;5069017;28;20041;-81
2023/03/21 02:34:43;;;;;;;1.42;1.23;;;9.20;99.90;;;;;;5053635;28;20123;-82
2023/03/21 02:37:27;;;;;;;8.00;2.40;;;9.20;99.90;;;;;;5054312;28;20037;-82
2023/03/21 02:40:18;;;;;;;1.52;1.25;;;9.20;99.90;;;;;;5052946;28;20064;-81
2023/03/21 02:43:05;;;;;;;1.08;0.85;;;9.20;99.90;;;;;;5067213;28;20070;-81
2023/03/21 02:45:39;;;;;;;3.88;2.50;;;9.20;99.90;;;;;;5072766;28;20109;-82
2023/03/21 02:48:10;;;;;;;4.07;1.40;;;9.30;99.90;;;;;;5073797;28;20049;-81
2023/03/21 02:50:57;;;;;;;1.65;1.55;;;9.20;99.90;;;;;;5073833;28;20054;-81
2023/03/21 02:53:30;;;;;;;1.77;1.67;;;9.20;99.90;;;;;;5055062;28;20064;-82
2023/03/21 02:55:57;;;;;;;1.45;1.35;;;9.50;99.90;;;;;;5053776;28;20123;-82
2023/03/21 02:58:26;;;;;;;5.63;2.17;;;9.20;99.90;;;;;;5053801;28;20057;-82
2023/03/21 03:00:55;;;;;;;0.43;0.40;;;9.20;99.90;;;;;;5065043;28;20087;-81
2023/03/21 03:03:22;;;;;;;3.70;2.15;;;9.20;99.90;;;;;;5056078;28;20053;-81
2023/03/21 03:05:54;;;;;;;1.55;1.25;;;9.20;99.90;;;;;;5035815;28;20055;-81
2023/03/21 03:08:43;;;;;;;0.77;0.70;;;9.20;99.90;;;;;;5054190;28;20053;-81
2023/03/21 03:11:24;;;;;;;1.13;1.02;;;9.20;99.90;;;;;;5053947;28;20530;-82
2023/03/21 03:14:01;;;;;;;2.38;1.92;;;9.20;99.90;;;;;;5054809;28;20052;-81
2023/03/21 03:16:39;;;;;;;4.53;2.10;;;9.20;99.90;;;;;;5073560;28;20402;-81
2023/03/21 03:19:13;;;;;;;2.38;1.90;;;9.20;99.90;;;;;;5073638;28;20465;-81
2023/03/21 03:21:48;;;;;;;1.95;0.98;;;9.20;99.90;;;;;;5068003;28;20044;-81
2023/03/21 03:24:21;;;;;;;1.75;1.63;;;9.20;99.90;;;;;;5053256;28;20055;-82
2023/03/21 03:26:51;;;;;;;1.13;0.73;;;9.20;99.90;;;;;;5053734;28;20127;-81
2023/03/21 03:29:19;;;;;;;1.00;0.82;;;9.20;99.90;;;;;;5052655;28;20056;-81
2023/03/21 03:31:50;;;;;;;2.63;1.40;;;9.80;99.90;;;;;;5065969;28;20183;-82
2023/03/21 03:34:21;;;;;;;1.85;1.33;;;9.20;99.90;;;;;;5052824;28;20506;-82
2023/03/21 03:36:54;;;;;;;1.33;1.23;;;9.20;99.90;;;;;;5053058;28;20128;-81
2023/03/21 03:39:26;;;;;;;1.75;1.00;;;9.10;99.90;;;;;;5055679;28;20517;-82
2023/03/21 03:42:01;;;;;;;0.90;0.88;;;9.10;99.90;;;;;;5072910;28;20049;-82
2023/03/21 03:44:27;;;;;;;0.75;0.63;;;9.20;99.90;;;;;;5071688;28;20057;-81
2023/03/21 03:47:02;;;;;;;0.73;0.63;;;9.10;99.90;;;;;;5071926;28;20062;-81
2023/03/21 03:50:00;;;;;;;2.70;1.10;;;9.10;99.90;;;;;;5071580;28;20055;-81
2023/03/21 03:52:31;;;;;;;1.52;1.20;;;9.10;99.90;;;;;;5071617;28;20045;-81
2023/03/21 03:54:57;;;;;;;1.77;1.00;;;9.10;99.90;;;;;;5072216;28;20075;-82
2023/03/21 03:57:25;;;;;;;1.55;1.08;;;9.10;99.90;;;;;;5068564;28;20451;-81
2023/03/21 03:59:51;;;;;;;1.48;0.52;;;9.10;99.90;;;;;;5059140;28;20041;-82
2023/03/21 04:02:19;;;;;;;0.52;0.40;;;9.10;99.90;;;;;;5059529;28;20049;-81
2023/03/21 04:04:45;;;;;;;1.75;1.65;;;9.20;99.90;;;;;;5051190;28;20057;-81
2023/03/21 04:07:12;;;;;;;1.65;1.17;;;9.20;99.90;;;;;;5050744;28;20043;-81
2023/03/21 04:09:37;;;;;;;0.08;0.08;;;9.10;99.90;;;;;;5051617;28;20048;-81
2023/03/21 04:12:03;;;;;;;2.00;1.73;;;9.10;99.90;;;;;;5062019;28;20053;-80
2023/03/21 04:14:29;;;;;;;0.43;0.43;;;9.10;99.90;;;;;;5072166;28;20040;-82
2023/03/21 04:16:55;;;;;;;1.25;0.65;;;9.30;99.90;;;;;;5071782;28;20171;-81
2023/03/21 04:19:20;;;;;;;0.32;0.20;;;9.10;99.90;;;;;;5072705;28;20048;-81
2023/03/21 04:21:46;;;;;;;2.65;1.33;;;9.10;99.90;;;;;;5070630;28;20048;-81
2023/03/21 04:24:12;;;;;;;0.55;0.55;;;9.70;99.90;;;;;;5072400;28;20040;-81
2023/03/21 04:26:39;;;;;;;1.42;1.33;;;9.10;99.90;;;;;;5071713;28;20429;-81
2023/03/21 04:29:05;;;;;;;1.40;1.30;;;9.10;99.90;;;;;;5072146;28;20058;-81
2023/03/21 04:31:33;;;;;;;1.13;0.95;;;9.10;99.90;;;;;;5052225;28;20044;-81
2023/03/21 04:34:08;;;;;;;2.25;1.08;;;9.20;99.90;;;;;;5052352;28;20651;-81
2023/03/21 04:36:38;;;;;;;0.63;0.63;;;9.10;99.90;;;;;;5052397;28;20048;-81
2023/03/21 04:39:11;;;;;;;1.40;1.30;;;9.10;99.90;;;;;;5073081;28;20079;-81
2023/03/21 04:41:41;;;;;;;3.03;2.72;;;9.20;99.90;;;;;;5043304;28;20183;-82
2023/03/21 04:44:07;;;;;;;1.27;0.80;;;9.20;99.90;;;;;;5075990;28;20463;-82
2023/03/21 04:46:34;;;;;;;0.50;0.50;;;9.20;99.90;;;;;;5075858;28;20067;-82
2023/03/21 04:49:00;;;;;;;0.70;0.30;;;9.20;99.90;;;;;;5077141;28;20063;-81
2023/03/21 04:51:26;;;;;;;0.70;0.70;;;9.20;99.90;;;;;;5076291;28;20047;-81
2023/03/21 04:53:56;;;;;;;0.65;0.50;;;9.20;99.90;;;;;;5074732;28;20044;-81
2023/03/21 04:56:32;;;;;;;1.65;1.08;;;9.20;99.90;;;;;;5074490;28;20108;-81
2023/03/21 04:59:06;;;;;;;;;;;9.20;99.90;;;;;;5075012;28;20057;-81
2023/03/21 05:01:32;;;;;;;0.47;0.47;;;9.20;99.90;;;;;;5060506;28;20816;-81
2023/03/21 05:04:00;;;;;;;0.52;0.32;;;9.20;99.90;;;;;;5075940;28;20045;-81
2023/03/21 05:06:26;;;;;;;0.85;0.85;;;9.20;99.90;;;;;;5075448;28;20037;-82
2023/03/21 05:08:55;;;;;;;2.50;1.65;;;9.20;99.90;;;;;;5075389;28;20051;-82
2023/03/21 05:11:22;;;;;;;0.82;0.70;;;9.20;99.90;;;;;;5062566;28;20140;-82
2023/03/21 05:13:48;;;;;;;0.35;0.35;;;9.20;99.90;;;;;;5074984;28;20115;-82
2023/03/21 05:16:13;;;;;;;0.70;0.65;;;9.20;99.90;;;;;;5074589;28;20075;-81
2023/03/21 05:18:39;;;;;;;2.13;0.98;;;9.20;99.90;;;;;;5076476;28;20048;-81
2023/03/21 05:21:09;;;;;;;0.57;0.52;;;9.20;99.90;;;;;;5076313;28;20044;-81
2023/03/21 05:23:39;;;;;;;2.72;1.02;;;9.20;99.90;;;;;;5075657;28;20242;-83
2023/03/21 05:26:06;;;;;;;0.40;0.40;;;9.20;99.90;;;;;;5076331;28;20090;-82
2023/03/21 05:28:35;;;;;;;2.20;1.15;;;9.20;99.90;;;;;;5076480;28;20059;-81
2023/03/21 05:31:05;;;;;;;2.28;0.82;;;9.20;99.90;;;;;;5075198;28;20048;-81
2023/03/21 05:33:31;;;;;;;1.10;0.65;;;9.20;99.90;;;;;;5075482;28;20079;-82
2023/03/21 05:35:57;;;;;;;1.73;1.02;;;9.20;99.90;;;;;;5075602;28;20069;-81
2023/03/21 05:38:24;;;;;;;2.58;2.38;;;9.20;99.90;;;;;;5076066;28;20300;-81
2023/03/21 05:40:50;;;;;;;0.82;0.80;;;9.20;99.90;;;;;;5075903;28;20055;-81
2023/03/21 05:43:16;;;;;;;0.10;0.10;;;9.20;99.90;;;;;;5060994;28;20084;-82
2023/03/21 05:45:43;;;;;;;0.95;0.80;;;9.20;99.90;;;;;;5054807;28;20075;-82
2023/03/21 05:48:08;;;;;;;3.95;1.77;;;10.00;99.90;;;;;;5055745;28;20514;-81
2023/03/21 05:50:34;;;;;;;2.40;1.90;;;9.20;99.90;;;;;;5055772;28;20049;-82
2023/03/21 05:53:00;;;;;;;1.25;0.95;;;9.20;99.90;;;;;;5059453;28;20064;-81
2023/03/21 05:55:26;;;;;;;2.85;1.58;;;9.20;99.90;;;;;;5066052;28;20044;-83
2023/03/21 05:57:51;;;;;;;1.58;1.30;;;9.20;99.90;;;;;;5053005;28;20135;-82
2023/03/21 06:00:20;;;;;;;1.52;1.42;;;9.20;99.90;;;;;;5054215;28;20040;-83
2023/03/21 06:02:46;;;;;;;1.23;1.13;;;9.20;99.90;;;;;;5058149;28;20534;-82
2023/03/21 06:05:12;;;;;;;1.48;1.33;;;9.20;99.90;;;;;;5066288;28;20048;-83
2023/03/21 06:07:38;;;;;;;1.30;0.98;;;9.20;99.90;;;;;;5054080;28;20037;-82
2023/03/21 06:10:05;;;;;;;1.38;1.27;;;9.20;99.90;;;;;;5054622;28;20279;-82
2023/03/21 06:12:31;;;;;;;1.98;1.10;;;9.20;99.90;;;;;;5070670;28;20163;-82
2023/03/21 06:14:57;;;;;;;1.13;1.02;;;9.70;99.90;;;;;;5073330;28;20111;-82
2023/03/21 06:17:22;;;;;;;0.55;0.55;;;9.30;99.90;;;;;;5074822;28;20048;-82
2023/03/21 06:19:48;;;;;;;0.73;0.73;;;9.20;99.90;;;;;;5069201;28;20045;-83
2023/03/21 06:22:14;;;;;;;1.45;1.35;;;9.30;99.90;;;;;;5072464;28;20048;-83
2023/03/21 06:24:40;;;;;;;1.85;0.98;;;9.30;99.90;;;;;;5057764;28;20060;-82
2023/03/21 06:27:05;;;;;;;3.50;1.38;;;9.20;99.90;;;;;;5057261;28;20303;-82
2023/03/21 06:29:31;;;;;;;1.02;0.93;;;9.30;99.90;;;;;;5056885;28;20037;-83
2023/03/21 06:31:57;;;;;;;1.55;1.45;;;9.40;99.90;;;;;;5056344;28;20052;-82
2023/03/21 06:34:22;;;;;;;0.73;0.63;;;9.40;99.90;;;;;;5056518;28;20052;-82
2023/03/21 06:36:50;;;;;;;0.75;0.75;;;9.40;99.90;;;;;;5052162;28;20079;-83
2023/03/21 06:39:16;;;;;;;2.20;1.05;;;9.40;99.90;;;;;;5050583;28;20055;-82
2023/03/21 06:41:42;;;;;;;5.55;2.15;;;9.40;99.90;;;;;;5050311;28;20056;-82
2023/03/21 06:44:08;;;;;;;0.73;0.73;;;10.60;99.90;;;;;;5049808;28;20064;-82
2023/03/21 06:46:34;;;;;;;0.57;0.57;;;9.40;99.90;;;;;;5050305;28;20041;-82
2023/03/21 06:49:00;;;;;;;5.10;2.85;;;9.40;99.90;;;;;;5050317;28;20078;-82
2023/03/21 06:51:25;;;;;;;3.83;1.08;;;9.30;99.90;;;;;;5051724;28;20045;-82
2023/03/21 06:53:51;;;;;;;1.75;0.63;;;9.40;99.90;;;;;;5050905;28;20040;-82
2023/03/21 06:56:17;;;;;;;3.63;1.08;;;9.40;99.90;;;;;;5051194;28;20439;-82
2023/03/21 06:58:42;;;;;;;1.45;0.75;;;9.40;99.90;;;;;;5049991;28;20055;-82
2023/03/21 07:01:08;;;;;;;2.63;1.40;;;9.40;99.90;;;;;;5050727;28;20067;-82
2023/03/21 07:03:34;;;;;;;0.68;0.68;;;9.40;99.90;;;;;;5049863;28;20076;-82
2023/03/21 07:06:10;;;;;;;1.23;0.75;;;9.40;99.90;;;;;;5049777;28;20045;-82
2023/03/21 07:08:37;;;;;;;1.48;1.10;;;9.50;99.90;;;;;;5050879;28;20099;-82
2023/03/21 07:11:03;;;;;;;1.95;1.00;;;9.50;99.90;;;;;;5051056;28;20060;-82
2023/03/21 07:13:30;;;;;;;2.15;1.95;;;9.50;99.90;;;;;;5050404;28;20041;-82
2023/03/21 07:15:56;;;;;;;3.30;2.30;;;9.60;99.90;;;;;;5050118;28;20060;-82
2023/03/21 07:18:22;;;;;;;1.48;0.95;;;9.60;99.90;;;;;;5050565;28;20049;-82
2023/03/21 07:20:49;;;;;;;1.30;1.02;;;9.50;99.90;;;;;;5050643;28;20052;-82
2023/03/21 07:23:20;;;;;;;7.43;2.75;;;9.60;99.90;;;;;;5050434;28;20049;-82
2023/03/21 07:25:50;;;;;;;1.58;1.38;;;9.60;99.90;;;;;;5049242;28;20060;-82
2023/03/21 07:28:16;;;;;;;0.63;0.52;;;9.60;99.90;;;;;;5050249;28;20041;-82
2023/03/21 07:30:42;;;;;;;0.82;0.68;;;9.70;99.90;;;;;;5051046;28;20075;-82
2023/03/21 07:33:10;;;;;;;1.25;1.05;;;9.70;99.90;;;;;;5049190;28;20344;-82
2023/03/21 07:35:36;;;;;;;1.35;1.00;;;9.70;99.90;;;;;;5048310;28;20719;-82
2023/03/21 07:38:06;;;;;;;1.95;1.30;;;9.80;99.90;;;;;;5047910;28;20213;-83
2023/03/21 07:40:32;;;;;;;1.17;0.77;;;9.80;99.90;;;;;;5049200;28;20055;-82
2023/03/21 07:42:57;;;;;;;2.00;0.63;;;9.80;99.90;;;;;;5048708;28;20053;-82
2023/03/21 07:45:25;;;;;;;4.20;1.65;;;9.80;99.90;;;;;;5047322;28;20067;-82
2023/03/21 07:47:52;;;;;;;0.95;0.55;;;10.00;99.90;;;;;;5048999;28;20049;-82
2023/03/21 07:50:18;;;;;;;0.43;0.43;;;9.90;99.90;;;;;;5048028;28;20044;-82
2023/03/21 07:52:43;;;;;;;0.65;0.63;;;9.90;99.90;;;;;;5047732;28;20060;-83
2023/03/21 07:55:10;;;;;;;1.23;1.13;;;9.90;99.90;;;;;;5048420;28;20062;-82
2023/03/21 07:57:36;;;;;;;1.63;0.88;;;9.90;99.90;;;;;;5048850;28;20044;-82
2023/03/21 08:00:03;;;;;;;1.25;0.55;;;9.90;99.90;;;;;;5047449;28;20055;-82
2023/03/21 08:02:29;;;;;;;7.85;1.70;;;9.80;99.90;;;;;;5048913;28;20076;-82
2023/03/21 08:04:55;;;;;;;0.20;0.17;;;9.90;99.90;;;;;;5049368;28;20067;-82
2023/03/21 08:07:20;;;;;;;0.80;0.57;;;9.90;99.90;;;;;;5049050;28;20041;-82
2023/03/21 08:09:46;;;;;;;0.47;0.45;;;9.80;99.90;;;;;;5048455;28;20057;-82
2023/03/21 08:12:12;;;;;;;1.35;0.47;;;10.80;99.90;;;;;;5049849;28;20049;-82
2023/03/21 08:14:38;;;;;;;0.88;0.73;;;9.80;99.90;;;;;;5049173;28;20119;-83
2023/03/21 08:17:05;;;;;;;5.60;0.70;;;9.80;99.90;;;;;;5047537;28;20589;-83
2023/03/21 08:19:31;;;;;;;0.22;0.22;;;9.80;99.90;;;;;;5048517;28;20076;-82
2023/03/21 08:21:58;;;;;;;0.63;0.32;;;10.30;99.90;;;;;;5048744;28;20504;-83
2023/03/21 08:24:25;;;;;;;2.13;0.20;;;9.80;99.90;;;;;;5048780;28;20053;-82
2023/03/21 08:26:51;;;;;;;0.43;0.43;;;9.80;99.90;;;;;;5047696;28;20056;-82
2023/03/21 08:29:16;;;;;;;0.65;0.55;;;9.80;99.90;;;;;;5047019;28;20049;-82
2023/03/21 08:31:42;;;;;;;0.55;0.52;;;9.80;99.90;;;;;;5047954;28;20116;-82
2023/03/21 08:34:08;;;;;;;0.25;0.20;;;9.80;99.90;;;;;;5049169;28;20069;-83
2023/03/21 08:36:37;;;;;;;0.55;0.35;;;9.80;99.90;;;;;;5049158;28;20095;-83
2023/03/21 08:39:04;;;;;;;0.17;0.17;;;9.80;99.90;;;;;;5048606;28;20526;-83
2023/03/21 08:41:34;;;;;;;0.05;0.05;;;9.80;99.90;;;;;;5049351;28;20103;-83
2023/03/21 08:44:00;;;;;;;2.08;1.42;;;9.80;99.90;;;;;;5049085;28;20056;-83
2023/03/21 08:46:28;;;;;;;0.20;0.20;;;9.80;99.90;;;;;;5051316;28;20548;-83
2023/03/21 08:48:53;;;;;;;0.47;0.45;;;9.80;99.90;;;;;;5051586;28;20080;-83
2023/03/21 08:51:20;;;;;;;1.02;1.00;;;10.80;99.90;;;;;;5051906;28;20076;-83
2023/03/21 08:53:49;;;;;;;1.20;0.57;;;9.80;99.90;;;;;;5051759;28;20067;-83
2023/03/21 08:56:15;;;;;;;1.42;1.33;;;9.80;99.90;;;;;;5050897;28;20406;-83
2023/03/21 08:58:41;;;;;;;0.30;0.28;;;9.80;99.90;;;;;;5051512;28;20080;-82
2023/03/21 09:01:10;;;;;;;0.30;0.28;;;9.80;99.90;;;;;;5051506;28;20053;-83
2023/03/21 09:03:36;;;;;;;0.50;0.50;;;9.80;99.90;;;;;;5050802;28;20049;-83
2023/03/21 09:06:02;;;;;;;2.00;1.63;;;9.90;99.90;;;;;;5051067;28;20572;-82
2023/03/21 09:08:28;;;;;;;3.60;0.95;;;9.90;99.90;;;;;;5049623;28;20052;-83
2023/03/21 09:10:55;;;;;;;1.80;1.65;;;10.00;99.90;;;;;;5049790;28;20501;-82
2023/03/21 09:13:21;;;;;;;0.95;0.75;;;10.00;99.90;;;;;;5049093;28;20056;-83
2023/03/21 09:15:47;;;;;;;1.08;0.75;;;10.00;99.90;;;;;;5049529;28;20056;-83
2023/03/21 09:18:14;;;;;;;0.22;0.22;;;10.00;99.90;;;;;;5049398;28;20406;-82
2023/03/21 09:20:46;;;;;;;1.25;0.93;;;10.00;99.90;;;;;;5049341;28;20128;-82
2023/03/21 09:23:13;;;;;;;2.67;1.05;;;10.00;99.90;;;;;;5049284;28;20064;-83
2023/03/21 09:25:41;;;;;;;1.77;1.38;;;9.90;99.90;;;;;;5049315;28;20465;-82
2023/03/21 09:28:07;;;;;;;0.30;0.28;;;9.90;99.90;;;;;;5049512;28;20045;-83
2023/03/21 09:30:35;;;;;;;1.17;1.08;;;9.80;99.90;;;;;;5054312;28;20053;-82
2023/03/21 09:33:05;;;;;;;2.13;1.70;;;9.90;99.90;;;;;;5053281;28;20053;-82
2023/03/21 09:35:31;;;;;;;0.40;0.40;;;9.90;99.90;;;;;;5054027;28;20044;-82
2023/03/21 09:37:57;;;;;;;0.75;0.57;;;9.90;99.90;;;;;;5054028;28;20106;-82
2023/03/21 09:40:51;;;;;;;1.95;0.68;;;9.90;99.90;;;;;;5053423;28;20049;-82
2023/03/21 09:43:33;;;;;;;1.50;1.40;;;9.90;99.90;;;;;;5053635;28;20248;-83
2023/03/21 09:46:14;;;;;;;0.85;0.63;;;9.90;99.90;;;;;;5054259;28;20056;-83
2023/03/21 09:48:56;;;;;;;0.70;0.68;;;9.80;99.90;;;;;;5054598;28;20048;-83
2023/03/21 09:51:35;;;;;;;1.45;1.17;;;9.80;99.90;;;;;;5054783;28;20041;-83
2023/03/21 09:54:11;;;;;;;2.67;1.25;;;9.80;99.90;;;;;;5052076;28;20060;-83
2023/03/21 09:56:39;;;;;;;;;;;9.90;99.90;;;;;;5054254;28;20041;-83
2023/03/21 09:59:09;;;;;;;1.27;1.17;;;10.00;99.90;;;;;;5053207;28;19924;-83
2023/03/21 10:01:40;;;;;;;0.47;0.47;;;9.80;99.90;;;;;;5051940;28;20062;-83
2023/03/21 10:04:11;;;;;;;4.03;1.83;;;9.70;99.90;;;;;;5052552;28;20049;-83
2023/03/21 10:06:40;;;;;;;6.50;2.53;;;9.70;99.90;;;;;;5054046;28;20394;-83
2023/03/21 10:09:15;;;;;;;2.20;1.42;;;9.70;99.90;;;;;;5054054;28;20076;-83
2023/03/21 10:12:06;;;;;;;1.27;1.13;;;9.70;99.90;;;;;;5053975;28;20048;-83
2023/03/21 10:14:44;;;;;;;0.45;0.45;;;9.60;99.90;;;;;;5054916;28;20988;-83
2023/03/21 10:17:26;;;;;;;0.95;0.75;;;9.60;99.90;;;;;;5054789;28;20053;-83
2023/03/21 10:20:15;;;;;;;0.98;0.88;;;9.60;99.90;;;;;;5053940;28;20052;-83
2023/03/21 10:22:42;;;;;;;1.75;1.65;;;9.70;99.90;;;;;;5053967;28;20048;-83
2023/03/21 10:25:15;;;;;;;1.73;1.55;;;9.60;99.90;;;;;;5053791;28;20045;-83
2023/03/21 10:27:40;;;;;;;1.65;0.75;;;9.60;99.90;;;;;;5052300;28;20089;-83
2023/03/21 10:30:16;;;;;;;1.95;1.40;;;9.70;99.90;;;;;;5050463;28;20083;-83
2023/03/21 10:32:42;;;;;;;3.08;2.05;;;9.60;99.90;;;;;;5049047;28;20586;-83
2023/03/21 10:35:12;;;;;;;1.65;0.80;;;9.60;99.90;;;;;;5051449;28;20056;-83
2023/03/21 10:37:37;;;;;;;1.27;1.17;;;9.60;99.90;;;;;;5051525;28;20049;-83
2023/03/21 10:40:06;;;;;;;0.75;0.75;;;9.60;99.90;;;;;;5050661;28;20048;-82
2023/03/21 10:42:34;;;;;;;2.42;1.98;;;9.70;99.90;;;;;;5051639;28;20064;-83
2023/03/21 10:45:00;;;;;;;0.35;0.35;;;10.50;99.90;;;;;;5052374;28;20052;-83
2023/03/21 10:47:32;;;;;;;4.30;1.23;;;9.80;99.90;;;;;;5051640;28;20048;-82
2023/03/21 10:50:05;;;;;;;0.57;0.52;;;9.80;99.90;;;;;;5050752;28;20127;-82
2023/03/21 10:52:32;;;;;;;1.88;1.40;;;9.90;99.90;;;;;;5050408;28;20041;-83
2023/03/21 10:55:16;;;;;;;3.05;1.77;;;10.00;99.90;;;;;;5050679;28;20322;-83
2023/03/21 10:57:42;;;;;;;0.50;0.50;;;10.00;99.90;;;;;;5052328;28;20056;-82
2023/03/21 11:00:17;;;;;;;1.00;0.95;;;10.10;99.90;;;;;;5051638;28;20045;-82
2023/03/21 11:02:51;;;;;;;1.17;0.80;;;10.10;99.90;;;;;;5051956;28;20586;-83
2023/03/21 11:05:26;;;;;;;0.57;0.57;;;10.10;99.90;;;;;;5049639;28;20296;-82
2023/03/21 11:08:13;;;;;;;1.30;0.93;;;10.30;99.90;;;;;;5050229;28;20131;-82
2023/03/21 11:11:02;;;;;;;0.00;0.00;;;10.50;99.90;;;;;;5049995;28;20043;-82
2023/03/21 11:13:39;;;;;;;1.60;1.42;;;10.70;99.90;;;;;;5031280;28;20048;-82
2023/03/21 11:16:09;;;;;;;6.50;1.30;;;11.10;99.90;;;;;;5049473;28;20052;-82
2023/03/21 11:18:48;;;;;;;0.22;0.22;;;10.90;99.90;;;;;;5048308;28;20044;-82
2023/03/21 11:21:15;;;;;;;1.60;1.50;;;10.90;99.90;;;;;;5047821;28;20070;-82
2023/03/21 11:23:46;;;;;;;0.57;0.57;;;11.10;99.90;;;;;;5048598;28;20053;-82
2023/03/21 11:26:29;;;;;;;1.25;1.15;;;11.20;99.90;;;;;;5048361;28;20052;-82
2023/03/21 11:28:55;;;;;;;1.23;0.68;;;11.20;99.90;;;;;;5048699;28;20413;-82
2023/03/21 11:31:23;;;;;;;3.00;1.60;;;11.40;99.90;;;;;;5048536;28;20048;-82
2023/03/21 11:33:55;;;;;;;6.57;1.77;;;11.50;99.90;;;;;;5048677;28;20060;-82
2023/03/21 11:36:21;;;;;;;3.88;3.10;;;11.60;99.90;;;;;;5048501;28;20049;-82
2023/03/21 11:38:52;;;;;;;1.25;0.90;;;11.70;99.90;;;;;;5049149;28;20059;-82
2023/03/21 11:41:33;;;;;;;3.25;0.88;;;11.60;99.90;;;;;;5048891;28;20045;-82
2023/03/21 11:44:00;;;;;;;1.48;1.27;;;11.60;99.90;;;;;;5048552;28;20346;-82
2023/03/21 11:46:31;;;;;;;1.88;0.30;;;11.90;99.90;;;;;;5048515;28;20048;-82
2023/03/21 11:48:59;;;;;;;0.82;0.68;;;11.70;99.90;;;;;;5048221;28;20067;-83
2023/03/21 11:51:49;;;;;;;1.45;1.35;;;12.20;99.90;;;;;;5049175;28;20052;-82
2023/03/21 11:54:29;;;;;;;0.90;0.85;;;11.90;99.90;;;;;;5048624;28;20057;-82
2023/03/21 11:57:10;;;;;;;0.98;0.57;;;11.90;99.90;;;;;;5049726;28;20049;-82
2023/03/21 11:59:48;;;;;;;0.85;0.65;;;11.90;99.90;;;;;;5049906;28;20059;-82
2023/03/21 12:02:41;;;;;;;1.48;1.23;;;12.00;99.90;;;;;;5048739;28;20055;-83
2023/03/21 12:05:18;;;;;;;0.75;0.75;;;11.90;99.90;;;;;;5049000;28;20091;-82
2023/03/21 12:08:07;;;;;;;2.53;1.55;;;11.90;99.90;;;;;;5047990;28;20051;-83
2023/03/21 12:10:46;;;;;;;0.32;0.30;;;11.90;99.90;;;;;;5050142;28;20059;-83
2023/03/21 12:13:41;;;;;;;1.88;1.48;;;12.00;1.00;;;;;;5049487;28;20126;-83
2023/03/21 12:16:21;;;;;;;0.20;0.20;;;11.80;1.00;;;;;;5048022;28;20057;-83
2023/03/21 12:19:20;;;;;;;0.57;0.35;;;11.80;99.90;;;;;;5050892;28;20047;-83
2023/03/21 12:21:46;;;;;;;7.85;0.40;;;11.80;1.00;;;;;;5050473;28;20045;-82
2023/03/21 12:24:20;;;;;;;0.45;0.45;;;12.00;99.90;;;;;;5049671;28;20060;-82
2023/03/21 12:27:18;;;;;;;0.15;0.15;;;11.80;99.90;;;;;;5052823;28;20045;-82
2023/03/21 12:30:19;;;;;;;1.20;0.82;;;11.80;1.00;;;;;;5053362;28;20053;-82
2023/03/21 12:33:12;;;;;;;0.30;0.30;;;11.70;99.90;;;;;;5051851;28;20052;-82
2023/03/21 12:35:51;;;;;;;0.60;0.43;;;11.60;99.90;;;;;;5051944;28;20049;-83
2023/03/21 12:38:25;;;;;;;2.70;0.77;;;11.60;69.60;;;;;;5050840;28;20067;-82
2023/03/21 12:41:06;;;;;;;0.55;0.55;;;11.40;1.00;;;;;;5053400;28;20124;-82
2023/03/21 12:43:41;;;;;;;0.25;0.22;;;11.20;99.90;;;;;;5053204;28;20068;-82
2023/03/21 12:46:22;;;;;;;0.17;0.17;;;11.10;99.90;;;;;;5052657;28;20111;-83
2023/03/21 12:49:04;;;;;;;0.63;0.43;;;11.10;99.90;;;;;;5052818;28;20685;-82
2023/03/21 12:51:33;;;;;;;0.65;0.65;;;11.10;99.90;;;;;;5053487;28;20554;-82
2023/03/21 12:54:24;;;;;;;1.00;0.90;;;11.10;99.90;;;;;;5053986;28;20048;-83
2023/03/21 12:56:56;;;;;;;0.75;0.60;;;11.10;99.90;;;;;;5053912;28;20059;-83
2023/03/21 12:59:24;;;;;;;1.10;0.88;;;11.10;99.90;;;;;;5053600;28;20453;-82
2023/03/21 13:01:54;;;;;;;1.85;1.48;;;11.20;99.90;;;;;;5053422;28;20053;-83
2023/03/21 13:04:30;;;;;;;0.60;0.25;;;11.30;99.90;;;;;;5056197;28;20088;-82
2023/03/21 13:07:00;;;;;;;0.80;0.77;;;11.40;99.90;;;;;;5057456;28;20075;-82
2023/03/21 13:09:40;;;;;;;0.25;0.15;;;11.40;99.90;;;;;;5057721;28;20105;-82
2023/03/21 13:12:15;;;;;;;0.47;0.20;;;11.60;99.90;;;;;;5057251;28;20037;-82
2023/03/21 13:14:58;;;;;;;0.30;0.30;;;11.50;99.90;;;;;;5057855;28;20098;-83
2023/03/21 13:17:33;;;;;;;0.73;0.47;;;11.60;70.80;;;;;;5057330;28;20124;-82